createdAt,value
2018-12-22T00:02:17.885Z,3.50
2018-12-22T00:04:45.712Z,3.23
2018-12-22T00:07:13.566Z,3.97
2018-12-22T00:09:41.388Z,3.03
2018-12-22T00:12:09.222Z,2.90
2018-12-22T00:14:37.058Z,3.03
2018-12-22T00:17:04.965Z,3.27
2018-12-22T00:19:32.861Z,2.83
2018-12-22T00:22:00.757Z,2.87
2018-12-22T00:24:28.724Z,3.00
2018-12-22T00:26:56.782Z,3.33
2018-12-22T00:29:24.604Z,2.87
2018-12-22T00:31:52.419Z,3.20
2018-12-22T00:34:20.235Z,2.90
2018-12-22T00:36:48.072Z,2.57
2018-12-22T00:39:15.906Z,2.77
2018-12-22T00:41:43.800Z,3.57
2018-12-22T00:44:11.646Z,2.63
2018-12-22T00:46:39.514Z,2.53
2018-12-22T00:49:07.490Z,3.00
2018-12-22T00:51:35.528Z,2.40
2018-12-22T00:54:03.436Z,2.73
2018-12-22T00:56:31.416Z,2.40
2018-12-22T00:58:59.264Z,3.00
2018-12-22T01:01:27.096Z,2.63
2018-12-22T01:03:54.926Z,2.27
2018-12-22T01:06:22.776Z,2.73
2018-12-22T01:08:50.601Z,2.33
2018-12-22T01:11:18.518Z,2.63
2018-12-22T01:13:46.347Z,2.07
2018-12-22T01:16:14.202Z,2.47
2018-12-22T01:18:42.046Z,2.20
2018-12-22T01:21:10.022Z,2.73
2018-12-22T01:23:37.844Z,2.60
2018-12-22T01:26:05.693Z,2.30
2018-12-22T01:28:39.393Z,2.60
2018-12-22T01:31:03.664Z,2.30
2018-12-22T01:33:31.535Z,2.10
2018-12-22T01:35:59.447Z,2.50
2018-12-22T01:38:27.269Z,2.47
2018-12-22T01:40:55.279Z,2.60
2018-12-22T01:43:23.137Z,2.17
2018-12-22T01:45:50.967Z,2.43
2018-12-22T01:48:18.900Z,2.57
2018-12-22T01:50:46.824Z,2.50
2018-12-22T01:53:14.778Z,1.90
2018-12-22T01:55:42.661Z,2.10
2018-12-22T01:58:10.785Z,2.17
2018-12-22T02:00:38.658Z,2.17
2018-12-22T02:03:06.604Z,2.20
2018-12-22T02:05:34.532Z,2.30
2018-12-22T02:08:02.479Z,2.47
2018-12-22T02:10:30.432Z,2.37
2018-12-22T02:12:58.323Z,2.70
2018-12-22T02:15:26.345Z,2.50
2018-12-22T02:17:54.201Z,2.10
2018-12-22T02:20:22.093Z,2.10
2018-12-22T02:22:49.943Z,2.27
2018-12-22T02:25:17.946Z,2.07
2018-12-22T02:27:45.849Z,2.00
2018-12-22T02:30:13.691Z,1.83
2018-12-22T02:32:41.561Z,1.80
2018-12-22T02:35:09.413Z,1.97
2018-12-22T02:37:37.311Z,2.10
2018-12-22T02:40:06.175Z,2.37
2018-12-22T02:42:34.253Z,2.17
2018-12-22T02:45:02.089Z,1.90
2018-12-22T02:47:29.904Z,2.20
2018-12-22T02:49:57.750Z,2.33
2018-12-22T02:52:25.620Z,2.10
2018-12-22T02:54:53.514Z,1.83
2018-12-22T02:57:21.925Z,1.97
2018-12-22T02:59:49.751Z,2.13
2018-12-22T03:02:17.587Z,2.13
2018-12-22T03:04:45.936Z,2.03
2018-12-22T03:07:13.765Z,1.90
2018-12-22T03:09:41.602Z,2.23
2018-12-22T03:12:09.474Z,2.00
2018-12-22T03:14:37.292Z,2.13
2018-12-22T03:17:05.138Z,2.43
2018-12-22T03:19:33.004Z,2.27
2018-12-22T03:22:00.873Z,2.57
2018-12-22T03:24:28.749Z,2.43
2018-12-22T03:26:56.639Z,2.30
2018-12-22T03:29:24.617Z,2.30
2018-12-22T03:31:52.527Z,2.73
2018-12-22T03:34:20.472Z,2.80
2018-12-22T03:36:48.324Z,2.90
2018-12-22T03:39:16.173Z,2.73
2018-12-22T03:41:44.099Z,2.20
2018-12-22T03:44:11.972Z,2.60
2018-12-22T03:46:39.795Z,2.43
2018-12-22T03:49:07.634Z,2.80
2018-12-22T03:51:35.491Z,2.47
2018-12-22T03:54:03.423Z,2.43
2018-12-22T03:56:31.339Z,2.50
2018-12-22T03:58:59.160Z,2.80
2018-12-22T04:01:27.062Z,2.63
2018-12-22T04:03:54.878Z,2.70
2018-12-22T04:06:22.714Z,3.27
2018-12-22T04:08:50.624Z,2.43
2018-12-22T04:11:18.509Z,2.70
2018-12-22T04:13:46.324Z,3.13
2018-12-22T04:16:14.149Z,3.33
2018-12-22T04:18:42.019Z,2.27
2018-12-22T04:21:09.888Z,3.07
2018-12-22T04:23:37.726Z,2.67
2018-12-22T04:26:05.621Z,2.70
2018-12-22T04:28:33.740Z,2.67
2018-12-22T04:31:01.580Z,3.13
2018-12-22T04:33:29.456Z,2.70
2018-12-22T04:35:57.288Z,2.77
2018-12-22T04:38:25.110Z,2.47
2018-12-22T04:40:52.992Z,2.77
2018-12-22T04:43:20.849Z,3.07
2018-12-22T04:45:48.709Z,2.60
2018-12-22T04:48:16.562Z,3.03
2018-12-22T04:50:44.383Z,2.93
2018-12-22T04:53:12.235Z,2.80
2018-12-22T04:55:40.119Z,3.13
2018-12-22T04:58:08.072Z,2.70
2018-12-22T05:00:35.922Z,2.90
2018-12-22T05:03:03.778Z,3.37
2018-12-22T05:05:31.635Z,3.00
2018-12-22T05:07:59.489Z,2.90
2018-12-22T05:10:27.400Z,2.77
2018-12-22T05:12:55.219Z,3.03
2018-12-22T05:15:23.050Z,3.10
2018-12-22T05:17:50.901Z,2.97
2018-12-22T05:20:18.700Z,2.77
2018-12-22T05:22:46.531Z,3.70
2018-12-22T05:25:14.369Z,2.93
2018-12-22T05:27:42.225Z,3.30
2018-12-22T05:30:10.215Z,3.00
2018-12-22T05:32:38.082Z,3.80
2018-12-22T05:35:06.085Z,2.83
2018-12-22T05:37:33.965Z,2.97
2018-12-22T05:40:01.781Z,3.13
2018-12-22T05:42:29.599Z,3.37
2018-12-22T05:44:57.417Z,3.00
2018-12-22T05:47:25.283Z,3.23
2018-12-22T05:49:53.179Z,3.00
2018-12-22T05:52:21.069Z,3.37
2018-12-22T05:54:48.880Z,3.30
2018-12-22T05:57:16.693Z,2.63
2018-12-22T05:59:44.530Z,3.53
2018-12-22T06:02:12.364Z,4.00
2018-12-22T06:04:40.309Z,3.43
2018-12-22T06:07:08.127Z,2.73
2018-12-22T06:09:36.389Z,2.97
2018-12-22T06:12:04.242Z,3.57
2018-12-22T06:14:32.069Z,3.00
2018-12-22T06:16:59.900Z,2.83
2018-12-22T06:19:27.826Z,3.40
2018-12-22T06:21:55.713Z,6.80
2018-12-22T06:24:23.614Z,5.80
2018-12-22T06:26:51.550Z,4.03
2018-12-22T06:29:19.488Z,3.30
2018-12-22T06:31:47.314Z,2.93
2018-12-22T06:34:15.158Z,3.50
2018-12-22T06:36:43.078Z,4.10
2018-12-22T06:39:11.043Z,3.33
2018-12-22T06:41:39.279Z,4.00
2018-12-22T06:44:07.100Z,3.50
2018-12-22T06:46:34.941Z,3.73
2018-12-22T06:49:02.811Z,3.33
2018-12-22T06:51:31.023Z,3.40
2018-12-22T06:53:58.927Z,3.20
2018-12-22T06:56:26.749Z,4.07
2018-12-22T06:58:54.794Z,3.83
2018-12-22T07:01:23.398Z,3.70
2018-12-22T07:03:51.270Z,3.60
2018-12-22T07:06:19.107Z,4.27
2018-12-22T07:08:46.945Z,3.60
2018-12-22T07:11:14.788Z,4.87
2018-12-22T07:13:42.704Z,4.77
2018-12-22T07:16:10.525Z,4.10
2018-12-22T07:18:38.350Z,3.93
2018-12-22T07:21:06.180Z,3.80
2018-12-22T07:23:34.032Z,3.37
2018-12-22T07:26:01.876Z,4.10
2018-12-22T07:28:29.708Z,3.73
2018-12-22T07:30:57.605Z,4.30
2018-12-22T07:33:25.436Z,3.57
2018-12-22T07:35:53.237Z,4.27
2018-12-22T07:38:21.070Z,3.80
2018-12-22T07:40:49.030Z,4.07
2018-12-22T07:43:16.880Z,3.77
2018-12-22T07:45:44.770Z,4.43
2018-12-22T07:48:12.588Z,4.17
2018-12-22T07:50:40.423Z,4.50
2018-12-22T07:53:08.249Z,4.53
2018-12-22T07:55:36.132Z,5.37
2018-12-22T07:58:04.024Z,5.37
2018-12-22T08:00:35.035Z,4.53
2018-12-22T08:03:01.935Z,5.00
2018-12-22T08:05:38.435Z,4.47
2018-12-22T08:07:59.645Z,6.10
2018-12-22T08:10:27.500Z,5.70
2018-12-22T08:12:55.400Z,13.33
2018-12-22T08:15:23.314Z,6.10
2018-12-22T08:17:51.331Z,5.17
2018-12-22T08:20:19.213Z,4.50
2018-12-22T08:22:47.227Z,4.87
2018-12-22T08:25:15.144Z,4.83
2018-12-22T08:27:42.965Z,4.87
2018-12-22T08:30:10.974Z,4.60
2018-12-22T08:32:38.838Z,5.27
2018-12-22T08:35:06.694Z,4.23
2018-12-22T08:37:35.579Z,4.87
2018-12-22T08:40:03.918Z,4.87
2018-12-22T08:42:31.771Z,5.00
2018-12-22T08:44:59.618Z,5.53
2018-12-22T08:47:27.458Z,4.90
2018-12-22T08:49:55.345Z,4.70
2018-12-22T08:52:23.194Z,4.83
2018-12-22T08:54:51.009Z,4.87
2018-12-22T08:57:18.836Z,4.40
2018-12-22T08:59:46.652Z,4.90
2018-12-22T09:02:14.478Z,4.57
2018-12-22T09:04:42.338Z,4.63
2018-12-22T09:07:10.191Z,4.77
2018-12-22T09:09:38.058Z,4.77
2018-12-22T09:12:05.888Z,4.60
2018-12-22T09:14:33.716Z,4.57
2018-12-22T09:17:01.554Z,4.30
2018-12-22T09:19:29.384Z,5.30
2018-12-22T09:21:57.324Z,4.90
2018-12-22T09:24:25.215Z,4.40
2018-12-22T09:26:53.104Z,4.87
2018-12-22T09:29:21.091Z,4.77
2018-12-22T09:31:48.926Z,4.60
2018-12-22T09:34:16.802Z,4.77
2018-12-22T09:36:44.634Z,4.77
2018-12-22T09:39:12.514Z,4.70
2018-12-22T09:41:40.367Z,4.97
2018-12-22T09:44:08.230Z,4.63
2018-12-22T09:46:36.477Z,4.97
2018-12-22T09:49:04.503Z,4.33
2018-12-22T09:51:32.406Z,4.97
2018-12-22T09:54:00.293Z,4.87
2018-12-22T09:56:28.266Z,5.23
2018-12-22T09:58:56.159Z,6.23
2018-12-22T10:01:24.012Z,5.30
2018-12-22T10:03:51.855Z,6.80
2018-12-22T10:06:19.712Z,5.13
2018-12-22T10:08:47.532Z,5.47
2018-12-22T10:11:15.367Z,7.87
2018-12-22T10:13:43.223Z,6.10
2018-12-22T10:16:11.082Z,5.63
2018-12-22T10:18:38.921Z,5.00
2018-12-22T10:21:06.745Z,5.03
2018-12-22T10:23:34.562Z,5.63
2018-12-22T10:26:02.454Z,5.10
2018-12-22T10:28:30.295Z,5.00
2018-12-22T10:30:58.145Z,4.67
2018-12-22T10:33:25.961Z,5.37
2018-12-22T10:35:53.802Z,5.10
2018-12-22T10:38:21.630Z,5.33
2018-12-22T10:40:49.475Z,6.73
2018-12-22T10:43:17.436Z,6.03
2018-12-22T10:45:45.282Z,5.47
2018-12-22T10:48:13.128Z,6.00
2018-12-22T10:50:41.177Z,6.30
2018-12-22T10:53:08.979Z,6.03
2018-12-22T10:55:36.810Z,5.33
2018-12-22T10:58:05.158Z,5.77
2018-12-22T11:00:33.035Z,5.90
2018-12-22T11:03:00.853Z,6.23
2018-12-22T11:05:28.724Z,5.63
2018-12-22T11:07:56.617Z,6.37
2018-12-22T11:10:25.466Z,6.43
2018-12-22T11:12:54.614Z,5.87
2018-12-22T11:15:22.485Z,6.07
2018-12-22T11:17:50.312Z,6.17
2018-12-22T11:20:18.150Z,7.50
2018-12-22T11:22:46.030Z,6.80
2018-12-22T11:25:16.125Z,6.73
2018-12-22T11:27:43.991Z,6.47
2018-12-22T11:30:13.791Z,6.80
2018-12-22T11:32:41.660Z,6.27
2018-12-22T11:35:09.548Z,6.23
2018-12-22T11:37:37.437Z,5.20
2018-12-22T11:40:06.086Z,5.90
2018-12-22T11:42:34.714Z,5.90
2018-12-22T11:45:03.387Z,5.60
2018-12-22T11:47:33.789Z,5.43
2018-12-22T11:50:01.630Z,5.57
2018-12-22T11:52:29.583Z,5.37
2018-12-22T11:54:57.433Z,5.27
2018-12-22T11:57:25.283Z,5.63
2018-12-22T11:59:53.130Z,5.93
2018-12-22T12:02:21.006Z,6.17
2018-12-22T12:04:48.834Z,6.17
2018-12-22T12:07:16.645Z,6.43
2018-12-22T12:09:44.519Z,7.30
2018-12-22T12:12:12.391Z,6.30
2018-12-22T12:14:40.256Z,6.90
2018-12-22T12:17:11.403Z,6.70
2018-12-22T12:19:39.399Z,6.93
2018-12-22T12:22:07.246Z,6.90
2018-12-22T12:24:35.067Z,6.37
2018-12-22T12:27:02.969Z,6.43
2018-12-22T12:29:30.843Z,6.40
2018-12-22T12:31:59.396Z,6.60
2018-12-22T12:34:28.169Z,6.60
2018-12-22T12:36:56.412Z,7.40
2018-12-22T12:39:24.257Z,7.53
2018-12-22T12:41:52.248Z,8.33
2018-12-22T12:44:20.631Z,9.03
2018-12-22T12:46:50.353Z,7.80
2018-12-22T12:49:18.814Z,7.17
2018-12-22T12:51:46.676Z,10.67
2018-12-22T12:54:14.546Z,7.70
2018-12-22T12:56:44.510Z,8.37
2018-12-22T12:59:12.315Z,5.90
2018-12-22T13:01:40.119Z,6.27
2018-12-22T13:04:08.057Z,6.13
2018-12-22T13:06:35.988Z,6.80
2018-12-22T13:09:05.343Z,6.43
2018-12-22T13:11:34.000Z,6.67
2018-12-22T13:14:03.468Z,6.43
2018-12-22T13:16:32.042Z,7.50
2018-12-22T13:18:59.850Z,6.37
2018-12-22T13:21:27.906Z,6.50
2018-12-22T13:23:56.284Z,6.93
2018-12-22T13:26:24.874Z,6.10
2018-12-22T13:28:52.876Z,8.20
2018-12-22T13:31:22.351Z,8.17
2018-12-22T13:33:50.279Z,8.23
2018-12-22T13:36:20.237Z,8.53
2018-12-22T13:38:53.137Z,8.60
2018-12-22T13:41:21.607Z,7.47
2018-12-22T13:43:50.006Z,8.47
2018-12-22T13:46:18.473Z,11.67
2018-12-22T13:48:47.291Z,11.13
2018-12-22T13:51:15.882Z,8.90
2018-12-22T13:53:44.651Z,8.70
2018-12-22T13:56:12.523Z,8.33
2018-12-22T13:58:40.921Z,9.30
2018-12-22T14:01:10.910Z,9.27
2018-12-22T14:03:40.502Z,8.47
2018-12-22T14:06:10.686Z,8.23
2018-12-22T14:08:39.154Z,8.53
2018-12-22T14:11:08.041Z,8.73
2018-12-22T14:13:36.796Z,8.77
2018-12-22T14:16:09.345Z,9.50
2018-12-22T14:18:43.201Z,8.47
2018-12-22T14:21:11.779Z,9.47
2018-12-22T14:23:49.879Z,9.97
2018-12-22T14:26:18.485Z,9.47
2018-12-22T14:28:46.917Z,9.07
2018-12-22T14:31:15.573Z,9.10
2018-12-22T14:33:43.797Z,9.20
2018-12-22T14:36:12.821Z,8.93
2018-12-22T14:38:41.276Z,10.70
2018-12-22T14:41:09.895Z,9.53
2018-12-22T14:43:38.353Z,10.90
2018-12-22T14:46:06.997Z,9.37
2018-12-22T14:48:35.790Z,9.73
2018-12-22T14:51:04.264Z,10.53
2018-12-22T14:53:32.953Z,9.60
2018-12-22T14:56:01.305Z,9.67
2018-12-22T14:58:30.366Z,10.00
2018-12-22T15:00:58.794Z,11.20
2018-12-22T15:03:27.254Z,10.47
2018-12-22T15:05:55.714Z,9.77
2018-12-22T15:08:24.367Z,11.03
2018-12-22T15:10:52.762Z,11.17
2018-12-22T15:13:21.569Z,10.07
2018-12-22T15:15:50.201Z,12.10
2018-12-22T15:18:18.891Z,10.60
2018-12-22T15:20:47.504Z,11.57
2018-12-22T15:23:16.149Z,10.93
2018-12-22T15:25:44.798Z,11.40
2018-12-22T15:28:12.610Z,10.70
2018-12-22T15:30:40.425Z,10.80
2018-12-22T15:33:08.272Z,11.03
2018-12-22T15:35:36.109Z,11.00
2018-12-22T15:38:04.382Z,11.63
2018-12-22T15:40:32.254Z,10.07
2018-12-22T15:43:00.186Z,11.23
2018-12-22T15:45:28.082Z,10.50
2018-12-22T15:47:55.956Z,10.73
2018-12-22T15:50:25.244Z,10.43
2018-12-22T15:52:53.714Z,11.00
2018-12-22T15:55:22.092Z,10.83
2018-12-22T15:57:50.559Z,10.60
2018-12-22T16:00:19.005Z,10.17
2018-12-22T16:02:53.128Z,10.60
2018-12-22T16:05:17.837Z,11.47
2018-12-22T16:08:48.745Z,12.40
2018-12-22T16:11:17.246Z,10.57
2018-12-22T16:13:45.887Z,10.33
2018-12-22T16:16:14.759Z,11.10
2018-12-22T16:18:43.397Z,17.10
2018-12-22T16:21:12.022Z,14.03
2018-12-22T16:23:40.657Z,10.90
2018-12-22T16:26:09.285Z,10.43
2018-12-22T16:28:39.513Z,10.90
2018-12-22T16:31:09.266Z,11.80
2018-12-22T16:33:37.724Z,11.57
2018-12-22T16:36:06.384Z,11.00
2018-12-22T16:38:35.033Z,11.23
2018-12-22T16:41:03.686Z,10.67
2018-12-22T16:43:32.311Z,9.70
2018-12-22T16:46:00.909Z,10.23
2018-12-22T16:48:29.218Z,10.03
2018-12-22T16:50:57.825Z,10.20
2018-12-22T16:53:26.460Z,10.00
2018-12-22T16:55:55.091Z,10.27
2018-12-22T16:58:26.601Z,11.03
2018-12-22T17:01:00.810Z,11.07
2018-12-22T17:03:29.565Z,12.10
2018-12-22T17:05:58.829Z,12.07
2018-12-22T17:08:27.289Z,11.50
2018-12-22T17:10:57.623Z,12.23
2018-12-22T17:13:25.590Z,12.10
2018-12-22T17:15:55.321Z,12.33
2018-12-22T17:18:24.196Z,12.60
2018-12-22T17:20:55.022Z,12.87
2018-12-22T17:23:28.792Z,11.90
2018-12-22T17:25:59.126Z,13.03
2018-12-22T17:28:28.457Z,13.73
2018-12-22T17:30:57.256Z,14.57
2018-12-22T17:33:25.877Z,14.63
2018-12-22T17:35:54.485Z,14.27
2018-12-22T17:38:22.769Z,14.77
2018-12-22T17:40:51.440Z,13.90
2018-12-22T17:43:20.008Z,14.10
2018-12-22T17:45:49.825Z,12.87
2018-12-22T17:48:18.678Z,13.17
2018-12-22T17:50:47.513Z,14.13
2018-12-22T17:53:16.150Z,14.03
2018-12-22T17:55:44.757Z,13.90
2018-12-22T17:58:13.192Z,13.57
2018-12-22T18:00:41.999Z,14.73
2018-12-22T18:03:11.490Z,13.90
2018-12-22T18:05:40.318Z,13.77
2018-12-22T18:08:08.939Z,14.33
2018-12-22T18:10:36.818Z,14.83
2018-12-22T18:13:05.236Z,16.50
2018-12-22T18:15:33.865Z,16.83
2018-12-22T18:18:02.508Z,15.93
2018-12-22T18:20:30.915Z,16.23
2018-12-22T18:22:59.387Z,17.23
2018-12-22T18:25:28.055Z,17.40
2018-12-22T18:27:56.645Z,16.77
2018-12-22T18:30:25.299Z,14.63
2018-12-22T18:32:54.077Z,15.27
2018-12-22T18:35:22.581Z,15.73
2018-12-22T18:37:51.213Z,15.87
2018-12-22T18:40:20.409Z,15.20
2018-12-22T18:42:48.878Z,16.87
2018-12-22T18:45:17.527Z,19.40
2018-12-22T18:47:46.130Z,19.77
2018-12-22T18:50:15.996Z,17.33
2018-12-22T18:52:44.607Z,17.47
2018-12-22T18:55:13.379Z,17.97
2018-12-22T18:57:41.932Z,17.30
2018-12-22T19:00:13.643Z,28.77
2018-12-22T19:02:42.078Z,20.93
2018-12-22T19:05:10.735Z,18.60
2018-12-22T19:07:39.341Z,17.77
2018-12-22T19:10:11.342Z,18.43
2018-12-22T19:12:39.739Z,16.93
2018-12-22T19:15:08.224Z,19.27
2018-12-22T19:17:36.874Z,17.53
2018-12-22T19:20:05.854Z,17.13
2018-12-22T19:22:33.703Z,17.63
2018-12-22T19:25:02.166Z,18.33
2018-12-22T19:27:30.797Z,18.33
2018-12-22T19:29:59.301Z,18.57
2018-12-22T19:32:27.878Z,16.90
2018-12-22T19:34:56.546Z,16.67
2018-12-22T19:37:24.542Z,15.83
2018-12-22T19:39:52.817Z,18.17
2018-12-22T19:42:21.458Z,17.80
2018-12-22T19:44:50.104Z,20.03
2018-12-22T19:47:18.713Z,18.87
2018-12-22T19:49:46.579Z,17.77
2018-12-22T19:52:15.088Z,17.23
2018-12-22T19:54:43.661Z,16.37
2018-12-22T19:57:12.300Z,16.33
2018-12-22T19:59:40.918Z,19.97
2018-12-22T20:02:09.595Z,20.50
2018-12-22T20:04:38.184Z,19.37
2018-12-22T20:07:06.032Z,18.33
2018-12-22T20:09:34.426Z,18.63
2018-12-22T20:12:02.670Z,22.10
2018-12-22T20:14:31.160Z,24.67
2018-12-22T20:16:59.822Z,23.57
2018-12-22T20:19:28.470Z,23.67
2018-12-22T20:21:57.229Z,23.47
2018-12-22T20:24:26.255Z,22.90
2018-12-22T20:26:54.737Z,22.13
2018-12-22T20:29:23.467Z,20.70
2018-12-22T20:31:52.228Z,21.03
2018-12-22T20:34:20.943Z,22.70
2018-12-22T20:36:49.485Z,23.13
2018-12-22T20:39:18.344Z,21.07
2018-12-22T20:41:47.545Z,21.47
2018-12-22T20:44:16.005Z,22.17
2018-12-22T20:46:44.470Z,21.13
2018-12-22T20:49:13.087Z,21.30
2018-12-22T20:51:41.681Z,21.13
2018-12-22T20:54:10.329Z,21.70
2018-12-22T20:56:38.963Z,21.97
2018-12-22T20:59:07.590Z,21.77
2018-12-22T21:01:36.242Z,23.37
2018-12-22T21:04:05.085Z,21.83
2018-12-22T21:06:34.554Z,24.27
2018-12-22T21:09:04.515Z,21.80
2018-12-22T21:11:32.354Z,24.13
2018-12-22T21:14:00.989Z,23.57
2018-12-22T21:16:29.400Z,23.37
2018-12-22T21:18:57.647Z,22.13
2018-12-22T21:21:26.115Z,23.33
2018-12-22T21:23:54.773Z,20.90
2018-12-22T21:26:23.397Z,22.47
2018-12-22T21:28:52.093Z,22.43
2018-12-22T21:31:20.810Z,22.70
2018-12-22T21:33:49.429Z,21.90
2018-12-22T21:36:17.744Z,23.23
2018-12-22T21:38:46.610Z,22.60
2018-12-22T21:41:15.438Z,22.13
2018-12-22T21:43:43.920Z,21.57
2018-12-22T21:46:12.291Z,20.80
2018-12-22T21:48:40.934Z,21.27
2018-12-22T21:51:09.688Z,22.03
2018-12-22T21:53:37.558Z,22.07
2018-12-22T21:56:06.642Z,20.03
2018-12-22T21:58:35.295Z,20.60
2018-12-22T22:01:03.906Z,21.30
2018-12-22T22:03:32.357Z,21.87
2018-12-22T22:06:00.785Z,20.90
2018-12-22T22:08:28.696Z,21.00
2018-12-22T22:10:57.325Z,21.60
2018-12-22T22:13:25.947Z,20.83
2018-12-22T22:15:54.361Z,21.07
2018-12-22T22:18:23.033Z,22.37
2018-12-22T22:20:51.643Z,20.17
2018-12-22T22:23:20.288Z,20.37
2018-12-22T22:25:48.887Z,23.93
2018-12-22T22:28:17.594Z,22.63
2018-12-22T22:30:46.332Z,24.10
2018-12-22T22:33:14.868Z,25.17
2018-12-22T22:35:43.503Z,24.63
2018-12-22T22:38:12.113Z,24.57
2018-12-22T22:40:40.734Z,26.63
2018-12-22T22:43:09.248Z,23.90
2018-12-22T22:45:37.813Z,23.03
2018-12-22T22:48:06.398Z,23.93
2018-12-22T22:50:34.939Z,24.87
2018-12-22T22:53:03.266Z,25.93
2018-12-22T22:55:31.631Z,23.50
2018-12-22T22:58:00.346Z,25.23
2018-12-22T23:00:34.958Z,24.67
2018-12-22T23:03:03.012Z,26.33
2018-12-22T23:05:31.761Z,31.60
2018-12-22T23:08:00.398Z,26.93
2018-12-22T23:10:29.167Z,30.20
2018-12-22T23:12:57.887Z,26.47
2018-12-22T23:15:26.622Z,26.30
2018-12-22T23:17:54.998Z,25.57
2018-12-22T23:20:23.434Z,25.40
2018-12-22T23:22:52.092Z,24.20
2018-12-22T23:25:20.713Z,24.67
2018-12-22T23:27:49.342Z,27.17
2018-12-22T23:30:17.199Z,24.87
2018-12-22T23:32:45.843Z,25.87
2018-12-22T23:35:14.464Z,27.33
2018-12-22T23:37:43.096Z,27.17
2018-12-22T23:40:11.885Z,25.87
2018-12-22T23:42:40.551Z,26.17
2018-12-22T23:45:09.203Z,25.33
2018-12-22T23:47:38.190Z,24.40
2018-12-22T23:50:06.670Z,25.33
2018-12-22T23:52:35.325Z,25.87
2018-12-22T23:55:03.950Z,26.23
2018-12-22T23:57:32.627Z,24.03
